Terminal Aerodrome Forecast
Issued by NWS

Home | Current Version | Previous Version | Text Only | Print | Product List | Glossary On
Versions: 1 2 3 4 5 6 7 8 9 10 11 12 13 14
151
FTUS45 KPSR 262326
TAFBLH
TAF
KBLH 262326Z 2700/2724 04010KT P6SM BKN200
      TEMPO 2700/2701 07010G20KT
     FM270600 02007KT P6SM SCT110 BKN200=

USA.gov is the U.S. government's official web portal to all federal, state and local government web resources and services.